Time;durP1;ratioP1;P1;durP2;ratioP2;P2;SDS_P1;SDS_P2;PMS_P1;PMS_P2;Temp;Humidity;BMP_temperature;BMP_pressure;BME280_temperature;BME280_humidity;BME280_pressure;Samples;Min_cycle;Max_cycle;Signal;HPM_P1;HPM_P2
2023/11/16 00:04:44;;;;;;;3.93;2.70;;;10.90;99.90;;;;;;10325610;28;20223;-79
2023/11/16 00:10:08;;;;;;;4.27;3.17;;;10.80;99.90;;;;;;10325773;28;20301;-79
2023/11/16 00:15:30;;;;;;;3.90;2.80;;;10.70;99.90;;;;;;10325680;28;20222;-78
2023/11/16 00:20:54;;;;;;;6.80;2.60;;;10.70;99.90;;;;;;10328282;28;20195;-79
2023/11/16 00:26:18;;;;;;;3.83;2.50;;;10.70;99.90;;;;;;10326137;28;20219;-79
2023/11/16 00:31:46;;;;;;;3.03;2.63;;;10.70;99.90;;;;;;10309682;28;20192;-79
2023/11/16 00:37:06;;;;;;;3.00;2.33;;;10.60;99.90;;;;;;10309865;28;20200;-79
2023/11/16 00:42:28;;;;;;;2.40;2.20;;;10.60;99.90;;;;;;10323812;28;20247;-78
2023/11/16 00:47:49;;;;;;;4.10;2.83;;;10.50;99.90;;;;;;10306618;28;20613;-78
2023/11/16 00:53:09;;;;;;;2.90;2.60;;;10.60;99.90;;;;;;10336299;23;20243;-79
2023/11/16 00:58:32;;;;;;;2.90;2.50;;;10.60;99.90;;;;;;10297321;28;20195;-79
2023/11/16 01:03:53;;;;;;;2.50;2.30;;;10.70;99.90;;;;;;10280714;28;20212;-79
2023/11/16 01:09:14;;;;;;;2.43;2.00;;;10.70;99.90;;;;;;10278190;28;20220;-79
2023/11/16 01:14:37;;;;;;;6.57;2.67;;;10.70;99.90;;;;;;10263145;28;20256;-79
2023/11/16 01:19:59;;;;;;;2.93;2.40;;;10.60;99.90;;;;;;10264885;28;20271;-79
2023/11/16 01:25:25;;;;;;;5.50;2.70;;;10.60;99.90;;;;;;10264142;28;20200;-78
2023/11/16 01:30:48;;;;;;;2.40;2.20;;;10.60;99.90;;;;;;10276446;28;20219;-79
2023/11/16 01:36:09;;;;;;;4.00;3.53;;;10.70;99.90;;;;;;10260951;28;20192;-77
2023/11/16 01:41:30;;;;;;;3.10;2.40;;;10.70;99.90;;;;;;10261499;28;20247;-77
2023/11/16 01:46:53;;;;;;;4.00;2.20;;;10.70;99.90;;;;;;10260801;28;20215;-79
2023/11/16 01:52:14;;;;;;;2.30;1.90;;;10.60;99.90;;;;;;10273134;28;20224;-79
2023/11/16 01:57:35;;;;;;;3.00;2.40;;;10.60;99.90;;;;;;10262586;28;20564;-78
2023/11/16 02:03:01;;;;;;;3.33;2.27;;;10.70;99.90;;;;;;10251377;28;20212;-79
2023/11/16 02:08:22;;;;;;;3.03;2.80;;;10.70;99.90;;;;;;10275913;28;20236;-79
2023/11/16 02:13:42;;;;;;;3.17;2.80;;;10.60;99.90;;;;;;10268851;28;20605;-78
2023/11/16 02:19:17;;;;;;;5.07;2.50;;;10.50;99.90;;;;;;10260513;28;20224;-78
2023/11/16 02:24:39;;;;;;;2.60;2.40;;;10.50;99.90;;;;;;10272293;28;20197;-78
2023/11/16 02:29:59;;;;;;;2.60;2.43;;;10.30;99.90;;;;;;10254263;28;20291;-79
2023/11/16 02:35:20;;;;;;;4.27;2.67;;;10.20;99.90;;;;;;10269091;28;20204;-78
2023/11/16 02:40:42;;;;;;;11.47;6.20;;;10.20;99.90;;;;;;10253738;28;20678;-78
2023/11/16 02:46:04;;;;;;;4.53;3.37;;;10.20;99.90;;;;;;10267069;28;20690;-78
2023/11/16 02:51:25;;;;;;;5.20;3.20;;;10.30;99.90;;;;;;10252108;28;20235;-78
2023/11/16 02:56:47;;;;;;;2.60;2.40;;;10.30;99.90;;;;;;10253338;28;20196;-79
2023/11/16 03:02:08;;;;;;;5.83;3.00;;;10.50;99.90;;;;;;10266265;28;20224;-79
2023/11/16 03:07:28;;;;;;;4.70;3.10;;;10.50;99.90;;;;;;10267674;28;20522;-79
2023/11/16 03:12:52;;;;;;;3.67;3.20;;;10.60;99.90;;;;;;10277354;28;20320;-79
2023/11/16 03:18:15;;;;;;;3.73;2.83;;;10.50;99.90;;;;;;10266202;28;20204;-78
2023/11/16 03:23:36;;;;;;;5.90;3.40;;;10.40;99.90;;;;;;10265161;28;20208;-78
2023/11/16 03:28:59;;;;;;;6.10;3.30;;;10.30;99.90;;;;;;10251767;28;20292;-78
2023/11/16 03:34:19;;;;;;;4.93;3.63;;;10.20;99.90;;;;;;10268974;28;20200;-79
2023/11/16 03:39:40;;;;;;;3.10;2.90;;;10.10;99.90;;;;;;10264516;28;20212;-78
2023/11/16 03:45:02;;;;;;;4.67;3.20;;;10.10;99.90;;;;;;10262410;28;20204;-79
2023/11/16 03:50:22;;;;;;;3.30;3.10;;;10.10;99.90;;;;;;10257275;28;20264;-78
2023/11/16 03:55:43;;;;;;;4.13;3.57;;;10.10;99.90;;;;;;10264239;28;20204;-79
2023/11/16 04:01:05;;;;;;;4.07;3.67;;;10.00;99.90;;;;;;10269345;28;20232;-79
2023/11/16 04:06:26;;;;;;;3.67;3.47;;;9.90;99.90;;;;;;10269951;28;20200;-77
2023/11/16 04:11:47;;;;;;;4.10;3.73;;;9.90;99.90;;;;;;10293418;28;20683;-78
2023/11/16 04:17:13;;;;;;;3.83;3.47;;;9.90;99.90;;;;;;10247960;28;20201;-79
2023/11/16 04:22:38;;;;;;;3.30;3.10;;;9.90;99.90;;;;;;10282176;28;20729;-79
2023/11/16 04:28:01;;;;;;;3.37;3.00;;;9.90;99.90;;;;;;10269590;28;20219;-78
2023/11/16 04:33:23;;;;;;;4.40;4.00;;;10.00;99.90;;;;;;10275800;28;20232;-77
2023/11/16 04:38:44;;;;;;;4.43;3.80;;;10.00;99.90;;;;;;10264441;28;20196;-79
2023/11/16 04:44:06;;;;;;;5.50;3.90;;;10.10;99.90;;;;;;10263009;28;20200;-78
2023/11/16 04:49:27;;;;;;;3.43;3.10;;;10.10;99.90;;;;;;10263156;28;20268;-78
2023/11/16 04:54:48;;;;;;;3.43;3.13;;;10.10;99.90;;;;;;10263115;28;20204;-78
2023/11/16 05:00:11;;;;;;;3.83;3.53;;;10.10;99.90;;;;;;10261266;28;20224;-77
2023/11/16 05:05:35;;;;;;;3.77;3.37;;;10.10;99.90;;;;;;10261201;28;20279;-77
2023/11/16 05:10:57;;;;;;;6.10;3.93;;;10.20;99.90;;;;;;10254332;28;20393;-79
2023/11/16 05:16:18;;;;;;;5.80;4.00;;;10.20;99.90;;;;;;10245397;28;20196;-78
2023/11/16 05:21:40;;;;;;;3.70;3.40;;;10.20;99.90;;;;;;10260369;28;20255;-79
2023/11/16 05:27:02;;;;;;;3.80;3.33;;;10.20;99.90;;;;;;10258990;28;20224;-78
2023/11/16 05:32:23;;;;;;;3.77;3.40;;;10.20;99.90;;;;;;10258034;28;20331;-79
2023/11/16 05:37:45;;;;;;;4.23;3.83;;;10.20;99.90;;;;;;10257324;28;20248;-77
2023/11/16 05:43:05;;;;;;;3.97;3.67;;;10.20;99.90;;;;;;10254676;28;20221;-78
2023/11/16 05:48:26;;;;;;;5.20;3.43;;;10.20;99.90;;;;;;10252620;28;20307;-80
2023/11/16 05:53:48;;;;;;;8.40;3.70;;;10.30;99.90;;;;;;10291418;28;20491;-78
2023/11/16 05:59:09;;;;;;;4.97;4.00;;;10.30;99.90;;;;;;10261565;28;20216;-80
2023/11/16 06:04:30;;;;;;;4.87;4.47;;;10.30;99.90;;;;;;10277443;28;20188;-81
2023/11/16 06:09:52;;;;;;;6.20;3.70;;;10.20;99.90;;;;;;10298463;28;20228;-79
2023/11/16 06:15:14;;;;;;;3.00;2.83;;;10.30;99.90;;;;;;10267097;28;20200;-81
2023/11/16 06:20:35;;;;;;;7.47;3.43;;;10.20;99.90;;;;;;10298094;28;20686;-80
2023/11/16 06:25:57;;;;;;;4.93;3.77;;;10.20;99.90;;;;;;10296593;28;20200;-79
2023/11/16 06:31:19;;;;;;;3.60;3.10;;;10.30;99.90;;;;;;10283444;28;20250;-80
2023/11/16 06:36:41;;;;;;;6.53;3.47;;;10.20;99.90;;;;;;10292447;28;20200;-80
2023/11/16 06:42:05;;;;;;;5.83;3.33;;;10.20;99.90;;;;;;10287005;28;20227;-80
2023/11/16 06:47:26;;;;;;;8.63;4.20;;;10.10;99.90;;;;;;10269566;28;20742;-80
2023/11/16 06:52:47;;;;;;;6.13;3.80;;;10.20;99.90;;;;;;10267544;28;20721;-80
2023/11/16 06:58:09;;;;;;;9.97;3.30;;;10.20;99.90;;;;;;10274537;28;20196;-81
2023/11/16 07:03:30;;;;;;;12.53;7.07;;;10.20;99.90;;;;;;10276840;28;20624;-80
2023/11/16 07:08:51;;;;;;;5.57;3.10;;;10.20;99.90;;;;;;10287080;28;20220;-80
2023/11/16 07:14:13;;;;;;;4.13;3.20;;;10.10;99.90;;;;;;10289638;28;20200;-79
2023/11/16 07:19:33;;;;;;;4.37;3.53;;;10.10;99.90;;;;;;10255703;28;20212;-80
2023/11/16 07:24:54;;;;;;;4.50;3.27;;;10.10;99.90;;;;;;10253607;28;20227;-79
2023/11/16 07:30:17;;;;;;;3.10;2.80;;;10.20;99.90;;;;;;10292880;28;20254;-80
2023/11/16 07:35:37;;;;;;;6.60;3.67;;;10.20;99.90;;;;;;10265958;28;20192;-80
2023/11/16 07:40:58;;;;;;;9.50;3.80;;;10.30;99.90;;;;;;10293100;28;20211;-80
2023/11/16 07:46:20;;;;;;;4.30;3.20;;;10.40;99.90;;;;;;10293301;28;20208;-81
2023/11/16 07:51:41;;;;;;;4.53;3.10;;;10.50;99.90;;;;;;10291393;28;20255;-80
2023/11/16 07:57:02;;;;;;;3.97;3.57;;;10.60;99.90;;;;;;10277314;28;20295;-80
2023/11/16 08:03:41;;;;;;;6.37;4.13;;;10.70;99.90;;;;;;10290821;28;20223;-81
2023/11/16 08:08:06;;;;;;;14.20;5.00;;;10.80;99.90;;;;;;10289584;28;20208;-81
2023/11/16 08:13:26;;;;;;;12.23;4.80;;;10.90;99.90;;;;;;10300885;28;20219;-80
2023/11/16 08:18:49;;;;;;;13.20;5.37;;;10.90;99.90;;;;;;10289913;28;20195;-80
2023/11/16 08:24:14;;;;;;;6.83;4.70;;;10.90;99.90;;;;;;10288761;28;20200;-81
2023/11/16 08:29:34;;;;;;;5.33;3.77;;;11.00;99.90;;;;;;10288917;28;20220;-80
2023/11/16 08:34:56;;;;;;;6.63;3.30;;;11.00;99.90;;;;;;10272808;28;20200;-81
2023/11/16 08:40:18;;;;;;;4.27;3.00;;;11.10;99.90;;;;;;10293215;28;20204;-81
2023/11/16 08:45:39;;;;;;;4.50;3.23;;;11.10;99.90;;;;;;10284934;28;20646;-80
2023/11/16 08:51:05;;;;;;;4.27;3.27;;;11.20;99.90;;;;;;10285566;28;20721;-80
2023/11/16 08:56:27;;;;;;;2.43;2.23;;;11.30;99.90;;;;;;10260577;28;20196;-80
2023/11/16 09:01:47;;;;;;;5.73;3.27;;;11.30;99.90;;;;;;10298589;28;20212;-81
2023/11/16 09:07:09;;;;;;;5.20;3.47;;;11.40;99.90;;;;;;10264833;28;20200;-80
2023/11/16 09:12:31;;;;;;;6.63;2.30;;;11.60;99.90;;;;;;10293070;28;20223;-81
2023/11/16 09:17:51;;;;;;;4.50;2.53;;;11.70;99.90;;;;;;10269321;28;20195;-80
2023/11/16 09:23:14;;;;;;;5.57;2.70;;;11.70;99.90;;;;;;10280524;28;20220;-80
2023/11/16 09:28:37;;;;;;;3.57;2.47;;;11.80;99.90;;;;;;10264180;28;20748;-81
2023/11/16 09:33:57;;;;;;;3.43;2.10;;;11.80;99.90;;;;;;10278221;28;20204;-80
2023/11/16 09:39:21;;;;;;;3.30;2.40;;;11.90;99.90;;;;;;10278973;28;20215;-81
2023/11/16 09:44:50;;;;;;;6.67;3.17;;;12.00;99.90;;;;;;10279003;28;20192;-81
2023/11/16 09:50:13;;;;;;;3.03;2.73;;;12.00;99.90;;;;;;10264415;28;20580;-81
2023/11/16 09:55:37;;;;;;;4.37;2.77;;;12.00;99.90;;;;;;10271621;28;20208;-80
2023/11/16 10:00:59;;;;;;;3.87;3.57;;;12.10;99.90;;;;;;10280705;28;20714;-80
2023/11/16 10:06:20;;;;;;;6.23;2.73;;;12.10;99.90;;;;;;10277963;28;20220;-81
2023/11/16 10:11:42;;;;;;;5.13;2.57;;;12.10;99.90;;;;;;10286809;28;20220;-80
2023/11/16 10:17:03;;;;;;;2.77;1.93;;;12.10;99.90;;;;;;10277196;28;20201;-80
2023/11/16 10:22:25;;;;;;;4.67;2.40;;;12.10;99.90;;;;;;10272522;28;20613;-80
2023/11/16 10:27:49;;;;;;;3.00;2.10;;;12.00;99.90;;;;;;10272130;28;20706;-80
2023/11/16 10:33:11;;;;;;;4.70;2.40;;;12.00;99.90;;;;;;10255464;28;20224;-80
2023/11/16 10:38:32;;;;;;;3.50;2.90;;;12.00;99.90;;;;;;10290789;28;20193;-80
2023/11/16 10:43:56;;;;;;;5.60;2.27;;;12.00;99.90;;;;;;10273808;28;20330;-80
2023/11/16 10:49:17;;;;;;;4.10;2.80;;;12.10;99.90;;;;;;10274229;28;20216;-80
2023/11/16 10:54:40;;;;;;;3.73;3.27;;;12.10;99.90;;;;;;10272805;28;20195;-78
2023/11/16 11:00:03;;;;;;;5.37;3.40;;;12.00;99.90;;;;;;10270499;28;20215;-80
2023/11/16 11:05:24;;;;;;;3.03;2.67;;;12.00;99.90;;;;;;10255416;28;20615;-80
2023/11/16 11:10:47;;;;;;;3.40;3.10;;;12.00;99.90;;;;;;10275008;28;20541;-78
2023/11/16 11:16:11;;;;;;;3.03;2.13;;;12.00;99.90;;;;;;10265583;28;20761;-81
2023/11/16 11:21:32;;;;;;;5.57;2.97;;;12.00;99.90;;;;;;10279728;28;20204;-80
2023/11/16 11:26:53;;;;;;;6.40;2.67;;;12.00;99.90;;;;;;10275360;28;20622;-80
2023/11/16 11:32:20;;;;;;;3.33;2.60;;;12.10;99.90;;;;;;10273633;28;20706;-80
2023/11/16 11:37:41;;;;;;;3.13;2.73;;;12.20;99.90;;;;;;10288228;28;20227;-80
2023/11/16 11:43:01;;;;;;;4.60;3.73;;;12.30;99.90;;;;;;10272921;28;20252;-80
2023/11/16 11:48:26;;;;;;;4.23;3.73;;;12.40;99.90;;;;;;10279917;28;20597;-80
2023/11/16 11:53:47;;;;;;;5.67;5.00;;;12.50;99.90;;;;;;10298212;28;20274;-81
2023/11/16 11:59:09;;;;;;;9.03;5.53;;;12.50;99.90;;;;;;10269998;28;20216;-80
2023/11/16 12:04:33;;;;;;;5.67;5.10;;;12.50;99.90;;;;;;10278148;28;20580;-81
2023/11/16 12:09:54;;;;;;;7.67;5.40;;;12.40;99.90;;;;;;10265245;28;20221;-80
2023/11/16 12:15:15;;;;;;;8.50;5.90;;;12.40;99.90;;;;;;10300404;28;20674;-80
2023/11/16 12:20:38;;;;;;;8.20;4.97;;;12.40;99.90;;;;;;10265263;28;20220;-80
2023/11/16 12:26:02;;;;;;;7.97;5.77;;;12.40;99.90;;;;;;10268591;28;20195;-80
2023/11/16 12:31:26;;;;;;;12.60;6.73;;;12.30;99.90;;;;;;10287650;28;20232;-80
2023/11/16 12:36:49;;;;;;;5.97;5.37;;;12.30;99.90;;;;;;10255270;28;20205;-80
2023/11/16 12:42:11;;;;;;;8.63;5.60;;;12.20;99.90;;;;;;10269696;28;20220;-80
2023/11/16 12:47:32;;;;;;;7.70;5.00;;;12.10;99.90;;;;;;10266332;28;20631;-80
2023/11/16 12:52:54;;;;;;;7.97;5.00;;;12.00;99.90;;;;;;10269525;28;20221;-80
2023/11/16 12:58:15;;;;;;;11.73;6.40;;;12.00;99.90;;;;;;10278234;28;20578;-80
2023/11/16 13:03:35;;;;;;;8.43;5.37;;;11.90;99.90;;;;;;10280128;28;20516;-80
2023/11/16 13:08:58;;;;;;;7.23;5.77;;;11.90;99.90;;;;;;10266505;28;20261;-80
2023/11/16 13:14:18;;;;;;;3.93;3.63;;;11.80;99.90;;;;;;10258351;28;20208;-80
2023/11/16 13:19:39;;;;;;;8.70;5.97;;;11.70;99.90;;;;;;10260878;28;20216;-80
2023/11/16 13:25:04;;;;;;;7.27;6.60;;;11.60;99.90;;;;;;10258926;28;20620;-79
2023/11/16 13:30:25;;;;;;;8.80;8.00;;;11.40;99.90;;;;;;10256677;28;20311;-80
2023/11/16 13:35:46;;;;;;;7.67;6.97;;;11.20;99.90;;;;;;10257338;28;20259;-80
2023/11/16 13:41:09;;;;;;;7.20;6.70;;;11.00;99.90;;;;;;10292954;28;20701;-79
2023/11/16 13:46:30;;;;;;;8.00;7.20;;;10.80;99.90;;;;;;10256553;28;20200;-80
2023/11/16 13:51:50;;;;;;;9.43;8.53;;;10.60;99.90;;;;;;10289792;28;20212;-80
2023/11/16 13:57:12;;;;;;;9.20;8.70;;;10.60;99.90;;;;;;10255778;28;20201;-80
2023/11/16 14:02:33;;;;;;;9.43;8.57;;;10.50;99.90;;;;;;10255899;28;20212;-78
2023/11/16 14:07:54;;;;;;;12.43;11.33;;;10.40;99.90;;;;;;10255409;28;20192;-80
2023/11/16 14:13:16;;;;;;;9.87;9.20;;;10.30;99.90;;;;;;10272081;28;20221;-79
2023/11/16 14:18:37;;;;;;;10.90;10.20;;;10.30;99.90;;;;;;10293595;28;20200;-80
2023/11/16 14:23:57;;;;;;;10.37;9.40;;;10.30;99.90;;;;;;10294549;28;20200;-79
2023/11/16 14:29:19;;;;;;;10.00;9.50;;;10.20;99.90;;;;;;10293090;28;20652;-80
2023/11/16 14:34:40;;;;;;;9.83;9.33;;;10.30;99.90;;;;;;10277199;28;20200;-80
2023/11/16 14:40:01;;;;;;;9.33;8.60;;;10.30;99.90;;;;;;10292343;28;20216;-80
2023/11/16 14:45:25;;;;;;;10.20;9.47;;;10.20;99.90;;;;;;10292464;28;20207;-80
2023/11/16 14:50:46;;;;;;;7.93;7.30;;;10.20;99.90;;;;;;10296808;28;20215;-80
2023/11/16 14:56:07;;;;;;;11.00;10.13;;;10.10;99.90;;;;;;10291901;28;20572;-80
2023/11/16 15:01:30;;;;;;;11.70;10.67;;;10.10;99.90;;;;;;10299567;28;20208;-80
2023/11/16 15:06:50;;;;;;;9.07;7.60;;;10.10;99.90;;;;;;10288434;28;20203;-80
2023/11/16 15:12:11;;;;;;;12.00;11.10;;;10.00;99.90;;;;;;10276256;28;20717;-80
2023/11/16 15:17:33;;;;;;;10.30;9.57;;;10.00;99.90;;;;;;10254732;28;20563;-80
2023/11/16 15:22:55;;;;;;;9.33;8.50;;;9.90;99.90;;;;;;10254431;28;20220;-80
2023/11/16 15:28:16;;;;;;;10.10;9.50;;;9.80;99.90;;;;;;10274730;28;20272;-79
2023/11/16 15:33:38;;;;;;;9.30;8.60;;;9.70;99.90;;;;;;10259380;28;20188;-80
2023/11/16 15:39:01;;;;;;;7.30;6.70;;;9.60;99.90;;;;;;10287246;28;20302;-80
2023/11/16 15:44:22;;;;;;;11.97;11.20;;;9.60;99.90;;;;;;10287016;28;20196;-80
2023/11/16 15:49:44;;;;;;;10.30;9.40;;;9.60;99.90;;;;;;10294611;28;20223;-79
2023/11/16 15:55:07;;;;;;;9.63;8.93;;;9.60;99.90;;;;;;10294730;28;20199;-79
2023/11/16 16:00:28;;;;;;;10.87;10.07;;;9.60;99.90;;;;;;10287396;28;20666;-80
2023/11/16 16:05:51;;;;;;;10.00;9.07;;;9.70;99.90;;;;;;10275094;28;20196;-78
2023/11/16 16:11:13;;;;;;;12.17;11.27;;;9.70;99.90;;;;;;10284557;28;20220;-77
2023/11/16 16:16:33;;;;;;;11.97;11.07;;;9.70;99.90;;;;;;10262141;28;20208;-78
2023/11/16 16:21:55;;;;;;;13.07;12.17;;;9.60;99.90;;;;;;10282340;28;20348;-78
2023/11/16 16:27:16;;;;;;;10.40;9.50;;;9.60;99.90;;;;;;10269570;28;20196;-79
2023/11/16 16:32:36;;;;;;;10.37;9.67;;;9.70;99.90;;;;;;10273110;28;20220;-79
2023/11/16 16:37:58;;;;;;;11.93;10.77;;;9.70;99.90;;;;;;10266439;28;20192;-79
2023/11/16 16:43:19;;;;;;;10.40;9.77;;;9.70;99.90;;;;;;10285189;28;20702;-78
2023/11/16 16:48:39;;;;;;;8.17;7.53;;;9.70;99.90;;;;;;10284583;28;20671;-79
2023/11/16 16:54:01;;;;;;;12.97;11.97;;;9.70;99.90;;;;;;10282400;28;20572;-79
2023/11/16 16:59:22;;;;;;;10.37;9.53;;;9.70;99.90;;;;;;10274515;28;20710;-80
2023/11/16 17:04:42;;;;;;;11.43;10.60;;;9.70;99.90;;;;;;10258802;28;20208;-80
2023/11/16 17:10:09;;;;;;;9.87;8.97;;;9.60;99.90;;;;;;10282435;28;20227;-80
2023/11/16 17:15:30;;;;;;;12.30;11.10;;;9.60;99.90;;;;;;10278811;28;20204;-78
2023/11/16 17:20:54;;;;;;;11.30;10.40;;;9.60;99.90;;;;;;10264023;28;20223;-79
2023/11/16 17:26:17;;;;;;;11.30;10.57;;;9.70;99.90;;;;;;10294260;28;20200;-79
2023/11/16 17:31:37;;;;;;;10.40;9.60;;;9.60;99.90;;;;;;10283198;28;20220;-79
2023/11/16 17:36:58;;;;;;;11.37;10.67;;;9.40;99.90;;;;;;10280268;28;20207;-80
2023/11/16 17:42:20;;;;;;;12.90;12.00;;;9.20;99.90;;;;;;10263934;28;20224;-80
2023/11/16 17:47:40;;;;;;;11.60;10.70;;;9.20;99.90;;;;;;10282599;28;20207;-80
2023/11/16 17:53:02;;;;;;;14.00;13.10;;;9.20;99.90;;;;;;10294173;28;20231;-80
2023/11/16 17:58:24;;;;;;;16.57;15.33;;;9.20;99.90;;;;;;10277263;28;20203;-77
2023/11/16 18:03:45;;;;;;;16.47;15.13;;;9.30;99.90;;;;;;10270247;28;20207;-80
2023/11/16 18:09:06;;;;;;;12.10;11.07;;;9.30;99.90;;;;;;10272300;28;20224;-79
2023/11/16 18:14:28;;;;;;;14.93;13.57;;;9.40;99.90;;;;;;10293658;28;20617;-80
2023/11/16 18:19:48;;;;;;;13.60;12.40;;;9.40;99.90;;;;;;10252376;28;20228;-80
2023/11/16 18:25:14;;;;;;;18.87;17.27;;;9.50;99.90;;;;;;10287585;28;20207;-81
2023/11/16 18:30:37;;;;;;;16.47;15.37;;;9.50;99.90;;;;;;10287344;28;20220;-78
2023/11/16 18:36:01;;;;;;;17.60;16.40;;;9.50;99.90;;;;;;10284601;28;20204;-80
2023/11/16 18:41:21;;;;;;;18.17;16.67;;;9.50;99.90;;;;;;10275058;28;20474;-80
2023/11/16 18:46:43;;;;;;;18.43;17.03;;;9.50;99.90;;;;;;10284408;28;20196;-80
2023/11/16 18:52:04;;;;;;;35.20;32.20;;;9.50;99.90;;;;;;10264797;28;20219;-80
2023/11/16 18:57:27;;;;;;;21.80;20.20;;;9.50;99.90;;;;;;10286531;28;20199;-81
2023/11/16 19:02:49;;;;;;;20.50;18.80;;;9.50;99.90;;;;;;10269790;28;20219;-82
2023/11/16 19:08:11;;;;;;;16.80;15.50;;;9.50;99.90;;;;;;10264245;28;20236;-82
2023/11/16 19:13:31;;;;;;;18.50;17.10;;;9.50;99.90;;;;;;10274947;28;20219;-82
2023/11/16 19:18:55;;;;;;;14.63;13.33;;;9.50;99.90;;;;;;10289568;28;20231;-81
2023/11/16 19:24:15;;;;;;;17.63;16.20;;;9.50;99.90;;;;;;10269469;28;20196;-81
2023/11/16 19:29:36;;;;;;;16.23;14.53;;;9.50;99.90;;;;;;10286058;28;20232;-81
2023/11/16 19:34:59;;;;;;;18.13;16.73;;;9.50;99.90;;;;;;10285450;28;20580;-81
2023/11/16 19:40:19;;;;;;;15.90;14.40;;;9.50;99.90;;;;;;10290467;28;20215;-82
2023/11/16 19:45:40;;;;;;;16.20;15.00;;;9.50;99.90;;;;;;10279883;28;20599;-81
2023/11/16 19:51:05;;;;;;;14.90;13.80;;;9.50;99.90;;;;;;10286698;28;20255;-80
2023/11/16 19:56:26;;;;;;;12.47;11.57;;;9.50;99.90;;;;;;10284362;28;20196;-82
2023/11/16 20:01:47;;;;;;;14.30;13.30;;;9.50;99.90;;;;;;10296252;28;20246;-81
2023/11/16 20:07:09;;;;;;;13.40;12.70;;;9.40;99.90;;;;;;10288406;28;20207;-81
2023/11/16 20:12:31;;;;;;;12.07;11.07;;;9.40;99.90;;;;;;10299420;28;20224;-80
2023/11/16 20:17:51;;;;;;;14.40;13.50;;;9.30;99.90;;;;;;10278050;28;20285;-81
2023/11/16 20:23:13;;;;;;;15.40;14.20;;;9.20;99.90;;;;;;10247251;28;20227;-80
2023/11/16 20:28:34;;;;;;;16.23;15.17;;;9.10;99.90;;;;;;10260038;28;20498;-80
2023/11/16 20:33:54;;;;;;;16.23;15.23;;;9.00;99.90;;;;;;10257296;28;20223;-80
2023/11/16 20:39:20;;;;;;;11.83;11.00;;;9.00;99.90;;;;;;10264761;28;20714;-80
2023/11/16 20:44:41;;;;;;;16.40;15.20;;;9.00;99.90;;;;;;10262363;28;20185;-81
2023/11/16 20:50:03;;;;;;;17.43;16.33;;;8.90;99.90;;;;;;10271735;28;20230;-81
2023/11/16 20:55:24;;;;;;;14.83;14.00;;;8.90;99.90;;;;;;10255531;28;20577;-83
2023/11/16 21:00:45;;;;;;;16.20;15.30;;;8.80;99.90;;;;;;10257296;28;20216;-82
2023/11/16 21:06:06;;;;;;;14.77;13.80;;;8.80;99.90;;;;;;10257609;28;20216;-83
2023/11/16 21:11:29;;;;;;;16.40;15.40;;;8.90;99.90;;;;;;10274013;28;20704;-83
2023/11/16 21:16:49;;;;;;;18.60;17.40;;;8.90;99.90;;;;;;10268345;28;20204;-82
2023/11/16 21:22:10;;;;;;;18.70;17.50;;;8.90;99.90;;;;;;10256472;28;20216;-80
2023/11/16 21:27:32;;;;;;;18.40;17.17;;;9.00;99.90;;;;;;10276770;28;20209;-82
2023/11/16 21:32:52;;;;;;;19.00;17.70;;;9.00;99.90;;;;;;10266380;28;20228;-82
2023/11/16 21:38:13;;;;;;;19.97;18.47;;;9.10;99.90;;;;;;10289983;28;20208;-82
2023/11/16 21:43:36;;;;;;;19.43;18.23;;;9.10;99.90;;;;;;10258210;28;20304;-80
2023/11/16 21:48:58;;;;;;;19.87;18.37;;;9.10;99.90;;;;;;10258197;28;20228;-81
2023/11/16 21:54:19;;;;;;;15.90;14.70;;;9.10;99.90;;;;;;10256272;28;20604;-82
2023/11/16 21:59:41;;;;;;;20.67;19.17;;;9.10;99.90;;;;;;10257274;28;20224;-83
2023/11/16 22:05:11;;;;;;;20.70;19.27;;;9.20;99.90;;;;;;10291350;28;20213;-81
2023/11/16 22:10:31;;;;;;;18.67;17.47;;;9.30;99.90;;;;;;10260834;28;20225;-83
2023/11/16 22:15:53;;;;;;;20.27;18.93;;;9.30;99.90;;;;;;10266317;28;21003;-83
2023/11/16 22:21:14;;;;;;;19.43;18.20;;;9.30;99.90;;;;;;10249594;28;20797;-80
2023/11/16 22:26:34;;;;;;;24.60;22.60;;;9.30;99.90;;;;;;10253103;28;20571;-82
2023/11/16 22:31:56;;;;;;;22.27;20.60;;;9.40;99.90;;;;;;10268335;28;20228;-82
2023/11/16 22:37:17;;;;;;;24.00;21.97;;;9.30;99.90;;;;;;10274047;28;20204;-82
2023/11/16 22:42:38;;;;;;;23.87;21.97;;;9.20;99.90;;;;;;10272649;28;20208;-83
2023/11/16 22:48:00;;;;;;;20.00;18.70;;;9.10;99.90;;;;;;10273720;28;20204;-82
2023/11/16 22:53:21;;;;;;;19.80;18.37;;;9.20;99.90;;;;;;10272925;28;21030;-81
2023/11/16 22:58:42;;;;;;;20.20;18.80;;;9.10;99.90;;;;;;10273014;28;20299;-82
2023/11/16 23:04:04;;;;;;;20.47;19.07;;;9.00;99.90;;;;;;10274904;28;20203;-83
2023/11/16 23:09:25;;;;;;;18.40;17.20;;;9.00;99.90;;;;;;10272525;28;20704;-82
2023/11/16 23:14:46;;;;;;;18.33;16.90;;;8.90;99.90;;;;;;10240346;29;20216;-82
2023/11/16 23:20:10;;;;;;;18.90;17.73;;;8.90;99.90;;;;;;10276069;28;20228;-82
2023/11/16 23:25:31;;;;;;;19.60;18.30;;;8.90;99.90;;;;;;10293809;28;20571;-82
2023/11/16 23:30:54;;;;;;;19.23;18.03;;;8.80;99.90;;;;;;10257355;28;20239;-83
2023/11/16 23:36:17;;;;;;;19.80;18.50;;;8.80;99.90;;;;;;10260958;28;20204;-82
2023/11/16 23:41:38;;;;;;;19.43;18.03;;;8.80;99.90;;;;;;10292801;28;20208;-81
2023/11/16 23:46:59;;;;;;;20.43;19.03;;;8.70;99.90;;;;;;10247222;28;20227;-82
2023/11/16 23:52:21;;;;;;;18.90;17.70;;;8.70;99.90;;;;;;10272365;28;20227;-82
2023/11/16 23:57:41;;;;;;;18.00;16.80;;;8.70;99.90;;;;;;10273955;28;20207;-82
